[aprssig] US Weather forecast via APRS message

la3qma at aprs.la la3qma at aprs.la
Sat Jan 23 11:17:14 CST 2016


Quoting "Javier Henderson via aprssig" <aprssig at tapr.org>:

> Martin,
>
> For us pilot geeks, an option to request the TAF via airport code   
> would be nice to have.
>
> Thank you for making this service available.
>
> 73,
> -jav k4jh


You can send a message to: METAR with the content of the 4 letter ICAO.

i.e
to: METAR
message: rjgg

you get a respond like:

RJGG 170630Z VRB02KT 9999 FEW035 BKN150 09/M06 Q1018 BECMG 03006KT

Kai Gunter
LA3QMA




More information about the aprssig mailing list